Time;durP1;ratioP1;P1;durP2;ratioP2;P2;SDS_P1;SDS_P2;PMS_P1;PMS_P2;Temp;Humidity;BMP_temperature;BMP_pressure;BME280_temperature;BME280_humidity;BME280_pressure;Samples;Min_cycle;Max_cycle;Signal;HPM_P1;HPM_P2
2022/09/01 00:00:51;;;;;;;15.88;7.05;;;;;;;12.31;98.87;99429.50;1725095;81;21561;-72
2022/09/01 00:03:23;;;;;;;16.42;7.05;;;;;;;12.28;98.67;99422.70;1716542;82;20943;-72
2022/09/01 00:05:56;;;;;;;13.62;5.58;;;;;;;12.28;98.46;99419.15;1731983;82;21008;-72
2022/09/01 00:08:23;;;;;;;20.68;6.50;;;;;;;12.27;97.99;99414.21;1706981;82;21286;-72
2022/09/01 00:10:50;;;;;;;28.00;10.38;;;;;;;12.28;97.80;99421.91;1719322;81;20944;-72
2022/09/01 00:13:22;;;;;;;29.87;9.80;;;;;;;12.27;97.49;99415.59;1712196;82;20954;-72
2022/09/01 00:15:54;;;;;;;15.68;6.20;;;;;;;12.26;97.25;99415.34;1710250;82;20911;-72
2022/09/01 00:18:23;;;;;;;16.20;6.17;;;;;;;12.24;96.96;99413.50;1715175;82;21569;-72
2022/09/01 00:20:54;;;;;;;11.38;5.37;;;;;;;12.19;96.51;99416.42;1720710;81;21253;-72
2022/09/01 00:23:25;;;;;;;13.00;5.40;;;;;;;12.13;96.59;99414.42;1715587;82;20904;-72
2022/09/01 00:25:58;;;;;;;10.75;5.17;;;;;;;12.10;96.65;99422.55;1710988;82;21531;-72
2022/09/01 00:28:27;;;;;;;11.08;5.20;;;;;;;12.09;96.63;99421.75;1719550;82;20931;-72
2022/09/01 00:30:57;;;;;;;10.55;4.45;;;;;;;12.10;96.62;99426.69;1700133;82;20916;-72
2022/09/01 00:33:24;;;;;;;12.78;4.70;;;;;;;12.10;96.86;99425.31;1716200;83;21534;-72
2022/09/01 00:35:57;;;;;;;9.88;4.90;;;;;;;12.12;96.87;99427.16;1720856;82;20973;-72
2022/09/01 00:38:25;;;;;;;13.88;5.97;;;;;;;12.13;96.76;99421.91;1679104;83;21054;-72
2022/09/01 00:40:54;;;;;;;24.10;7.67;;;;;;;12.13;96.64;99424.05;1631742;87;20927;-72
2022/09/01 00:43:38;;;;;;;19.73;8.13;;;;;;;12.15;96.65;99421.78;1676700;84;20893;-72
2022/09/01 00:46:09;;;;;;;24.92;8.95;;;;;;;12.19;96.58;99432.38;1676988;84;21150;-72
2022/09/01 00:48:36;;;;;;;23.62;9.03;;;;;;;12.23;96.48;99439.40;1688963;83;20964;-72
2022/09/01 00:51:13;;;;;;;18.02;6.65;;;;;;;12.27;96.45;99434.86;1720283;83;21432;-72
2022/09/01 00:53:41;;;;;;;;;;;;;;;12.30;96.19;99432.02;1715781;83;21424;-72
2022/09/01 00:56:12;;;;;;;11.18;4.85;;;;;;;12.32;96.01;99434.67;1712085;83;20118;-73
2022/09/01 00:58:41;;;;;;;11.43;5.03;;;;;;;12.33;95.81;99437.66;1669007;84;21304;-72
2022/09/01 01:01:11;;;;;;;9.45;4.70;;;;;;;12.35;95.87;99436.77;1716127;83;20856;-72
2022/09/01 01:03:45;;;;;;;13.40;4.78;;;;;;;12.34;95.53;99435.16;1716488;83;20927;-72
2022/09/01 01:06:26;;;;;;;10.63;5.40;;;;;;;12.35;95.50;99432.64;1716361;83;20912;-72
2022/09/01 01:08:56;;;;;;;15.00;5.30;;;;;;;12.36;95.29;99435.63;1703105;83;20973;-72
2022/09/01 01:11:22;;;;;;;14.58;6.55;;;;;;;12.35;95.42;99432.64;1725730;82;21261;-72
2022/09/01 01:14:10;;;;;;;17.23;5.80;;;;;;;12.34;95.42;99435.16;1711055;82;20900;-72
2022/09/01 01:16:45;;;;;;;13.03;5.15;;;;;;;12.34;95.32;99434.34;1699216;81;21585;-72
2022/09/01 01:23:01;;;;;;;14.58;5.30;;;;;;;12.36;95.39;99427.94;1692676;84;21069;-72
2022/09/01 01:25:40;;;;;;;13.83;5.55;;;;;;;12.36;95.24;99432.88;1684621;84;22096;-73
2022/09/01 01:28:21;;;;;;;23.12;5.80;;;;;;;12.38;95.22;99429.80;1655698;84;20925;-72
2022/09/01 01:31:00;;;;;;;11.15;5.55;;;;;;;12.37;95.19;99430.36;1680395;84;21054;-72
2022/09/01 01:33:43;;;;;;;10.70;4.97;;;;;;;12.39;95.06;99429.47;1658325;84;21485;-73
2022/09/01 01:36:23;;;;;;;10.75;4.78;;;;;;;12.40;95.14;99429.70;1698077;84;21029;-73
2022/09/01 01:38:51;;;;;;;13.60;4.92;;;;;;;12.38;95.05;99424.29;1699683;82;20895;-73
2022/09/01 01:41:18;;;;;;;10.78;5.60;;;;;;;12.34;95.27;99421.95;1698160;82;20971;-72
2022/09/01 01:43:51;;;;;;;10.25;5.05;;;;;;;12.32;95.21;99424.23;1649672;84;20899;-72
2022/09/01 01:46:22;;;;;;;9.98;5.12;;;;;;;12.29;95.28;99423.52;1705130;81;21453;-73
2022/09/01 01:48:52;;;;;;;9.80;5.12;;;;;;;12.28;95.27;99417.77;1683572;84;20901;-73
2022/09/01 01:51:25;;;;;;;9.60;5.20;;;;;;;12.26;95.63;99415.34;1654486;84;21109;-72
2022/09/01 01:53:56;;;;;;;11.50;5.10;;;;;;;12.23;95.96;99407.75;1680210;84;21000;-72
2022/09/01 01:56:25;;;;;;;22.07;5.50;;;;;;;12.19;96.22;99399.91;1664524;84;21067;-73
2022/09/01 01:58:58;;;;;;;15.40;9.03;;;;;;;12.15;96.30;99403.89;1674252;84;21023;-72
2022/09/01 02:01:27;;;;;;;51.18;23.35;;;;;;;12.08;96.24;99406.95;1685149;84;21622;-72
2022/09/01 02:03:56;;;;;;;24.00;11.25;;;;;;;12.00;96.63;99411.91;1686128;82;21163;-72
2022/09/01 02:06:26;;;;;;;20.27;7.45;;;;;;;11.90;97.07;99419.38;1684148;84;21012;-71
2022/09/01 02:09:01;;;;;;;13.28;5.78;;;;;;;11.85;97.31;99418.17;1689272;84;21640;-72
2022/09/01 02:11:28;;;;;;;;;;;;;;;11.85;97.87;99417.36;1668830;82;21101;-71
2022/09/01 02:13:57;;;;;;;18.65;7.47;;;;;;;11.83;97.96;99413.56;1674762;84;20180;-71
2022/09/01 02:16:28;;;;;;;17.20;7.60;;;;;;;11.81;97.96;99410.33;1666067;84;20975;-72
2022/09/01 02:19:01;;;;;;;20.40;9.60;;;;;;;11.77;97.69;99411.31;1656151;84;20976;-71
2022/09/01 02:21:28;;;;;;;20.12;9.65;;;;;;;11.67;97.31;99403.37;1676741;84;21541;-71
2022/09/01 02:24:04;;;;;;;14.73;6.55;;;;;;;11.58;97.07;99406.13;1646470;84;21059;-71
2022/09/01 02:26:39;;;;;;;14.15;5.45;;;;;;;11.44;97.01;99409.08;1685083;84;21539;-71
2022/09/01 02:29:16;;;;;;;15.03;6.92;;;;;;;11.31;97.75;99410.62;1684682;84;21215;-72
2022/09/01 02:31:45;;;;;;;18.15;6.55;;;;;;;11.15;97.77;99409.73;1648323;84;21010;-71
2022/09/01 02:34:19;;;;;;;10.50;5.80;;;;;;;11.02;97.80;99416.18;1646058;84;20907;-71
2022/09/01 02:36:51;;;;;;;14.00;6.53;;;;;;;10.87;98.10;99411.18;1681950;83;21044;-71
2022/09/01 02:39:32;;;;;;;19.98;7.40;;;;;;;10.73;98.31;99412.69;1688708;83;21428;-71
2022/09/01 02:42:07;;;;;;;24.02;7.60;;;;;;;10.64;98.74;99417.91;1678403;84;21533;-72
2022/09/01 02:44:31;;;;;;;17.37;6.90;;;;;;;10.50;99.02;99420.20;1680543;82;20885;-71
2022/09/01 02:47:04;;;;;;;21.60;7.80;;;;;;;10.41;99.50;99414.45;1691109;83;21649;-71
2022/09/01 02:49:31;;;;;;;17.32;7.28;;;;;;;10.32;100.00;99416.38;1727028;82;20906;-72
2022/09/01 02:52:03;;;;;;;14.87;7.05;;;;;;;10.24;100.00;99419.33;1689759;84;21471;-72
2022/09/01 02:54:36;;;;;;;32.95;7.62;;;;;;;10.20;100.00;99422.45;1707647;84;21280;-72
2022/09/01 02:57:07;;;;;;;18.67;6.28;;;;;;;10.14;100.00;99416.83;1705371;84;21003;-72
2022/09/01 02:59:40;;;;;;;12.88;5.70;;;;;;;10.09;100.00;99421.08;1686883;83;20971;-71
2022/09/01 03:02:12;;;;;;;19.23;6.55;;;;;;;10.05;100.00;99424.20;1694421;83;20973;-71
2022/09/01 03:04:50;;;;;;;13.25;5.95;;;;;;;10.08;100.00;99423.58;1688008;82;21108;-72
2022/09/01 03:07:17;;;;;;;19.52;6.70;;;;;;;10.08;100.00;99424.95;1666828;82;21267;-73
2022/09/01 03:09:52;;;;;;;14.00;5.42;;;;;;;10.09;100.00;99425.20;1670325;84;21594;-72
2022/09/01 03:12:22;;;;;;;13.13;5.90;;;;;;;10.06;100.00;99427.20;1709338;82;21016;-73
2022/09/01 03:14:54;;;;;;;13.98;4.90;;;;;;;10.01;100.00;99420.47;1713997;83;21057;-72
2022/09/01 03:17:26;;;;;;;8.55;4.60;;;;;;;10.03;100.00;99420.97;1708070;83;21022;-73
2022/09/01 03:20:06;;;;;;;9.18;5.20;;;;;;;10.12;100.00;99420.45;1733303;80;20882;-72
2022/09/01 03:22:36;;;;;;;29.63;5.92;;;;;;;10.22;100.00;99432.55;1702871;83;21487;-72
2022/09/01 03:25:04;;;;;;;28.80;5.67;;;;;;;10.37;100.00;99433.51;1709163;83;21443;-71
2022/09/01 03:27:32;;;;;;;21.12;5.60;;;;;;;10.49;100.00;99437.80;1707395;83;20969;-71
2022/09/01 03:30:01;;;;;;;9.65;4.80;;;;;;;10.68;100.00;99443.59;1701041;83;20897;-70
2022/09/01 03:32:28;;;;;;;13.68;5.10;;;;;;;10.87;100.00;99443.57;1707372;82;21276;-72
2022/09/01 03:35:00;;;;;;;11.25;4.70;;;;;;;11.03;100.00;99435.66;1708785;83;20931;-72
2022/09/01 03:37:30;;;;;;;11.15;4.75;;;;;;;11.20;100.00;99437.05;1717444;82;21053;-72
2022/09/01 03:40:03;;;;;;;13.85;4.83;;;;;;;11.33;100.00;99437.22;1697459;83;21490;-72
2022/09/01 03:42:31;;;;;;;15.35;5.30;;;;;;;11.40;100.00;99443.84;1665151;83;20948;-72
2022/09/01 03:45:11;;;;;;;14.45;5.47;;;;;;;11.46;100.00;99451.36;1660340;86;21315;-72
2022/09/01 03:47:40;;;;;;;10.15;4.72;;;;;;;11.54;100.00;99455.48;1669650;84;21449;-72
2022/09/01 03:50:19;;;;;;;15.13;5.72;;;;;;;11.59;100.00;99455.86;1637056;86;21041;-71
2022/09/01 03:52:57;;;;;;;15.70;5.62;;;;;;;11.62;100.00;99451.66;1711493;82;20979;-72
2022/09/01 03:55:36;;;;;;;14.07;5.55;;;;;;;11.65;100.00;99462.81;1725771;82;20998;-71
2022/09/01 03:58:10;;;;;;;15.65;5.53;;;;;;;11.66;100.00;99460.30;1716349;82;21172;-73
2022/09/01 04:00:42;;;;;;;21.07;6.65;;;;;;;11.64;100.00;99465.89;1718576;82;20978;-73
2022/09/01 04:03:11;;;;;;;;;;;;;;;11.58;99.95;99462.49;1731123;82;20948;-74
2022/09/01 04:05:44;;;;;;;14.85;7.53;;;;;;;11.51;100.00;99459.45;1689803;83;20171;-73
2022/09/01 04:08:16;;;;;;;21.12;7.37;;;;;;;11.45;100.00;99461.55;1666754;84;21048;-72
2022/09/01 04:10:51;;;;;;;15.40;6.12;;;;;;;11.46;100.00;99468.67;1692608;84;21138;-72
2022/09/01 04:13:31;;;;;;;11.55;5.80;;;;;;;11.53;100.00;99463.49;1695995;84;21479;-71
2022/09/01 04:16:02;;;;;;;21.10;7.10;;;;;;;11.67;100.00;99462.48;1700040;84;20884;-69
2022/09/01 04:18:33;;;;;;;23.95;6.72;;;;;;;11.83;100.00;99463.06;1680459;83;21181;-68
2022/09/01 04:21:06;;;;;;;14.03;6.25;;;;;;;11.98;100.00;99465.88;1686447;84;21033;-67
2022/09/01 04:23:45;;;;;;;14.85;6.62;;;;;;;12.09;99.23;99473.22;1674145;84;21255;-71
2022/09/01 04:26:22;;;;;;;17.40;5.83;;;;;;;12.13;99.09;99471.43;1674850;83;21285;-69
2022/09/01 04:28:50;;;;;;;14.93;6.15;;;;;;;12.18;97.99;99469.84;1671703;84;21573;-69
2022/09/01 04:31:20;;;;;;;13.68;6.58;;;;;;;12.14;96.96;99479.33;1684091;84;21098;-69
2022/09/01 04:33:54;;;;;;;15.87;7.17;;;;;;;12.23;97.63;99472.42;1696278;84;21153;-71
2022/09/01 04:36:29;;;;;;;16.32;7.12;;;;;;;12.28;96.18;99479.12;1652176;84;21448;-71
2022/09/01 04:38:59;;;;;;;17.00;7.22;;;;;;;12.32;96.20;99470.45;1677252;82;21477;-68
2022/09/01 04:41:32;;;;;;;15.53;7.50;;;;;;;12.36;95.26;99475.55;1653205;84;20994;-67
2022/09/01 04:44:06;;;;;;;17.60;7.28;;;;;;;12.39;94.97;99476.27;1656594;84;22128;-70
2022/09/01 04:46:49;;;;;;;19.62;8.50;;;;;;;12.44;94.66;99478.84;1657378;84;21504;-69
2022/09/01 04:49:19;;;;;;;17.98;7.85;;;;;;;12.53;94.23;99475.48;1681609;84;21364;-74
2022/09/01 04:51:53;;;;;;;18.57;7.67;;;;;;;12.62;93.66;99481.52;1686883;84;21020;-72
2022/09/01 04:54:24;;;;;;;21.57;8.58;;;;;;;12.67;92.88;99481.34;1677671;84;21071;-74
2022/09/01 04:56:53;;;;;;;229.43;17.65;;;;;;;12.72;91.83;99483.88;1695333;82;21035;-71
2022/09/01 04:59:28;;;;;;;37.03;10.35;;;;;;;12.81;91.49;99484.65;1704690;84;20892;-71
2022/09/01 05:02:08;;;;;;;43.48;11.70;;;;;;;12.94;89.62;99478.66;1688765;84;21184;-70
2022/09/01 05:04:32;;;;;;;35.95;9.83;;;;;;;13.02;89.85;99478.62;1652097;84;21458;-70
2022/09/01 05:07:03;;;;;;;22.65;9.90;;;;;;;13.08;89.17;99480.04;1689266;84;21538;-73
2022/09/01 05:09:41;;;;;;;35.63;11.10;;;;;;;13.18;89.17;99482.44;1687923;84;21589;-70
2022/09/01 05:12:28;;;;;;;28.05;11.22;;;;;;;13.28;88.32;99476.30;1677380;84;20956;-68
2022/09/01 05:14:58;;;;;;;46.10;12.93;;;;;;;13.41;86.95;99475.20;1682010;83;21875;-72
2022/09/01 05:17:37;;;;;;;21.27;10.03;;;;;;;13.54;87.57;99478.27;1689722;82;21145;-71
2022/09/01 05:19:58;;;;;;;21.85;10.00;;;;;;;13.75;86.27;99478.25;1678033;84;21023;-75
2022/09/01 05:22:30;;;;;;;44.00;12.50;;;;;;;13.85;84.54;99480.02;1695219;83;21135;-73
2022/09/01 05:25:12;;;;;;;;;;;;;;;13.92;85.01;99474.50;1680687;84;21444;-73
2022/09/01 05:27:37;;;;;;;22.87;10.63;;;;;;;14.05;83.50;99478.91;1671986;83;21167;-74
2022/09/01 05:30:07;;;;;;;27.87;10.48;;;;;;;14.12;83.52;99482.73;1666383;82;21002;-69
2022/09/01 05:32:38;;;;;;;23.05;11.65;;;;;;;14.26;83.30;99472.77;1653890;84;21067;-74
2022/09/01 05:35:09;;;;;;;25.97;12.45;;;;;;;14.41;81.59;99478.20;1693218;84;20937;-73
2022/09/01 05:37:40;;;;;;;25.80;12.82;;;;;;;14.39;80.65;99478.55;1658190;84;20978;-70
2022/09/01 05:40:14;;;;;;;31.75;15.43;;;;;;;14.34;80.12;99473.82;1672268;84;21173;-72
2022/09/01 05:42:41;;;;;;;37.88;16.05;;;;;;;14.31;79.92;99472.55;1682231;84;21072;-68
2022/09/01 05:45:19;;;;;;;36.68;18.20;;;;;;;14.32;80.00;99468.64;1640465;84;20920;-67
2022/09/01 05:47:47;;;;;;;47.35;18.87;;;;;;;14.37;79.11;99462.09;1669197;84;20983;-67
2022/09/01 05:50:18;;;;;;;40.50;19.45;;;;;;;14.37;79.11;99462.89;1665576;83;21573;-71
2022/09/01 05:52:46;;;;;;;39.50;18.10;;;;;;;14.43;79.41;99464.31;1669052;84;21233;-68
2022/09/01 05:55:15;;;;;;;41.63;20.52;;;;;;;14.52;78.40;99455.89;1685677;84;21527;-70
2022/09/01 05:57:46;;;;;;;42.80;20.12;;;;;;;14.62;77.29;99460.16;1674172;83;20979;-69
2022/09/01 06:00:16;;;;;;;38.05;19.67;;;;;;;14.71;76.34;99461.66;1671198;84;20992;-73
2022/09/01 06:02:45;;;;;;;40.45;19.12;;;;;;;14.77;75.25;99456.14;1666138;83;21020;-75
2022/09/01 06:05:15;;;;;;;37.03;17.85;;;;;;;14.84;75.16;99456.38;1689803;82;21271;-74
2022/09/01 06:07:51;;;;;;;36.83;18.35;;;;;;;14.93;74.11;99453.48;1688065;83;20953;-74
2022/09/01 06:10:18;;;;;;;35.48;18.92;;;;;;;14.99;73.48;99456.25;1697054;83;21006;-73
2022/09/01 06:12:49;;;;;;;32.88;17.42;;;;;;;15.06;74.42;99459.78;1693877;83;20957;-71
2022/09/01 06:15:19;;;;;;;35.70;18.93;;;;;;;15.14;74.34;99455.51;1687853;83;21111;-71
2022/09/01 06:17:54;;;;;;;49.10;19.55;;;;;;;15.19;73.09;99462.77;1688609;82;21841;-72
2022/09/01 06:20:23;;;;;;;43.33;19.70;;;;;;;15.24;73.80;99465.87;1688200;83;20995;-71
2022/09/01 06:22:52;;;;;;;45.70;19.73;;;;;;;15.29;73.12;99466.43;1697500;83;21034;-69
2022/09/01 06:25:25;;;;;;;35.60;20.20;;;;;;;15.36;73.57;99463.08;1687957;82;20963;-71
2022/09/01 06:28:03;;;;;;;41.80;20.85;;;;;;;15.48;73.20;99468.00;1696409;83;38017;-73
2022/09/01 06:30:35;;;;;;;42.40;20.12;;;;;;;15.65;71.39;99466.91;1689053;83;21019;-72
2022/09/01 06:33:12;;;;;;;35.17;19.30;;;;;;;15.80;70.17;99469.52;1673615;83;21071;-72
2022/09/01 06:35:49;;;;;;;34.43;19.25;;;;;;;15.98;69.18;99470.02;1713064;83;20943;-72
2022/09/01 06:38:25;;;;;;;32.73;17.35;;;;;;;16.17;67.60;99470.16;1715923;83;21443;-71
2022/09/01 06:41:11;;;;;;;34.38;18.45;;;;;;;16.33;65.60;99465.99;1693921;82;21021;-74
2022/09/01 06:43:40;;;;;;;29.83;16.37;;;;;;;16.53;65.76;99475.22;1703868;83;21522;-71
2022/09/01 06:46:12;;;;;;;38.75;18.70;;;;;;;16.79;64.65;99481.84;1710564;83;21011;-69
2022/09/01 06:48:45;;;;;;;44.00;21.37;;;;;;;16.98;64.41;99479.72;1712427;83;21466;-73
2022/09/01 06:51:12;;;;;;;41.73;21.05;;;;;;;17.09;64.34;99476.62;1724987;82;21061;-69
2022/09/01 06:54:01;;;;;;;41.55;20.50;;;;;;;17.23;63.45;99485.05;1708869;82;21126;-68
2022/09/01 06:56:20;;;;;;;44.30;18.62;;;;;;;17.31;64.11;99475.72;1647746;84;21250;-68
2022/09/01 06:58:53;;;;;;;50.67;18.27;;;;;;;17.36;61.43;99487.31;1689509;83;21024;-71
2022/09/01 07:01:26;;;;;;;27.27;15.30;;;;;;;17.37;61.47;99486.73;1704313;82;21537;-70
2022/09/01 07:03:56;;;;;;;28.98;13.95;;;;;;;17.48;61.92;99488.58;1703246;83;21447;-70
2022/09/01 07:06:38;;;;;;;62.20;15.25;;;;;;;17.75;61.92;99494.33;1686127;83;21538;-74
2022/09/01 07:09:18;;;;;;;30.65;14.70;;;;;;;18.04;59.59;99486.77;1701551;83;21270;-72
2022/09/01 07:11:51;;;;;;;27.58;12.78;;;;;;;18.25;56.50;99495.31;1680404;83;20930;-74
2022/09/01 07:14:26;;;;;;;32.03;13.88;;;;;;;18.21;56.70;99490.27;1699810;84;20941;-77
2022/09/01 07:16:59;;;;;;;39.08;16.10;;;;;;;18.21;56.72;99488.30;1679734;84;21394;-73
2022/09/01 07:19:29;;;;;;;35.75;15.68;;;;;;;18.28;57.02;99486.23;1701771;84;21429;-73
2022/09/01 07:22:04;;;;;;;35.38;15.05;;;;;;;18.42;58.09;99485.91;1701923;84;22713;-73
2022/09/01 07:24:38;;;;;;;33.05;15.95;;;;;;;18.59;55.46;99486.57;1702553;84;20924;-74
2022/09/01 07:27:14;;;;;;;30.00;15.80;;;;;;;18.64;53.83;99487.09;1715725;82;21454;-73
2022/09/01 07:29:46;;;;;;;32.80;16.62;;;;;;;18.57;52.61;99488.33;1708771;82;20909;-72
2022/09/01 07:32:19;;;;;;;26.65;14.95;;;;;;;18.54;53.21;99475.17;1707085;82;20940;-74
2022/09/01 07:34:54;;;;;;;27.80;14.10;;;;;;;18.60;53.60;99489.56;1704003;82;21260;-72
2022/09/01 07:37:35;;;;;;;51.40;16.40;;;;;;;18.69;53.06;99488.77;1723040;82;21505;-74
2022/09/01 07:39:58;;;;;;;36.10;15.48;;;;;;;18.79;53.20;99488.14;1712526;82;20957;-73
2022/09/01 07:42:43;;;;;;;28.55;15.75;;;;;;;18.96;53.40;99490.42;1636815;86;21057;-73
2022/09/01 07:45:32;;;;;;;33.78;18.70;;;;;;;19.25;52.41;99495.00;1696815;83;21070;-72
2022/09/01 07:48:13;;;;;;;27.00;16.77;;;;;;;19.47;51.63;99487.18;1680720;84;21185;-74
2022/09/01 07:50:46;;;;;;;37.00;16.77;;;;;;;19.81;51.43;99488.03;1696032;82;20943;-74
2022/09/01 07:53:25;;;;;;;32.17;16.77;;;;;;;20.16;49.06;99475.71;1689685;82;21494;-72
2022/09/01 07:55:58;;;;;;;28.38;16.07;;;;;;;20.27;47.37;99489.94;1687315;84;21022;-72
2022/09/01 07:58:34;;;;;;;32.65;14.23;;;;;;;20.24;46.57;99487.12;1687140;84;20895;-73
2022/09/01 08:01:08;;;;;;;28.30;15.05;;;;;;;20.32;46.40;99489.59;1697637;84;21113;-72
2022/09/01 08:03:42;;;;;;;33.35;15.90;;;;;;;20.44;46.58;99481.00;1692675;83;20961;-73
2022/09/01 08:06:12;;;;;;;;;;;;;;;20.76;46.84;99480.49;1708127;81;20988;-73
2022/09/01 08:08:43;;;;;;;25.52;13.10;;;;;;;21.12;45.05;99489.92;1682448;82;20138;-73
2022/09/01 08:11:21;;;;;;;20.97;10.38;;;;;;;21.33;45.07;99489.30;1714272;82;20982;-74
2022/09/01 08:14:01;;;;;;;18.02;8.88;;;;;;;21.38;42.81;99484.13;1662496;83;21430;-74
2022/09/01 08:16:36;;;;;;;12.13;7.65;;;;;;;21.26;43.97;99484.47;1679348;82;21167;-78
2022/09/01 08:19:07;;;;;;;11.15;6.53;;;;;;;21.15;41.63;99479.97;1692949;83;20864;-72
2022/09/01 08:21:40;;;;;;;16.00;7.37;;;;;;;20.93;42.63;99479.81;1709373;82;21026;-70
2022/09/01 08:24:21;;;;;;;11.10;5.05;;;;;;;20.88;44.01;99485.75;1714680;83;20947;-70
2022/09/01 08:26:49;;;;;;;8.80;3.45;;;;;;;20.94;43.29;99479.22;1742848;81;21431;-71
2022/09/01 08:29:24;;;;;;;5.55;2.65;;;;;;;21.03;42.40;99481.88;1694738;82;20992;-71
2022/09/01 08:31:53;;;;;;;7.80;2.50;;;;;;;21.06;42.76;99473.33;1689321;83;20958;-71
2022/09/01 08:34:26;;;;;;;4.83;2.47;;;;;;;20.95;41.82;99476.05;1679815;83;21281;-72
2022/09/01 08:36:55;;;;;;;4.75;1.90;;;;;;;20.79;42.44;99476.94;1705455;82;21062;-70
2022/09/01 08:39:25;;;;;;;6.37;2.08;;;;;;;20.78;41.80;99472.55;1720744;82;22206;-72
2022/09/01 08:42:22;;;;;;;12.82;1.95;;;;;;;20.77;41.61;99476.52;1712524;82;20979;-73
2022/09/01 08:45:28;;;;;;;3.92;1.30;;;;;;;20.90;42.34;99467.23;1726300;81;20856;-72
2022/09/01 08:48:03;;;;;;;8.08;1.77;;;;;;;21.16;41.56;99469.02;1702799;83;20916;-72
2022/09/01 08:50:37;;;;;;;3.95;1.45;;;;;;;21.24;40.73;99465.11;1689502;82;21062;-70
2022/09/01 08:53:34;;;;;;;2.83;1.67;;;;;;;21.04;40.21;99461.75;1612545;84;20917;-70
2022/09/01 08:56:05;;;;;;;1.72;1.25;;;;;;;20.92;40.49;99467.64;1677519;81;21025;-72
2022/09/01 08:58:33;;;;;;;5.10;1.07;;;;;;;20.88;41.49;99462.03;1667776;83;21022;-76
2022/09/01 09:01:41;;;;;;;3.30;0.90;;;;;;;21.16;42.37;99465.63;1697808;81;20967;-73
2022/09/01 09:04:47;;;;;;;8.25;1.05;;;;;;;21.63;40.21;99454.13;1688944;84;20888;-76
2022/09/01 09:07:39;;;;;;;5.58;0.88;;;;;;;22.08;40.60;99444.33;1697844;83;21245;-76
2022/09/01 09:10:36;;;;;;;5.95;1.32;;;;;;;22.67;40.00;99448.98;1688688;82;20976;-77
2022/09/01 09:13:56;;;;;;;3.67;0.72;;;;;;;23.11;37.74;99447.80;1652634;82;20915;-74
2022/09/01 09:16:36;;;;;;;;;;;;;;;23.44;36.10;99443.70;1708304;82;21411;-74
2022/09/01 09:19:25;;;;;;;3.45;0.60;;;;;;;23.87;35.10;99442.34;1677556;81;20129;-74
2022/09/01 09:22:01;;;;;;;0.95;0.60;;;;;;;23.91;35.18;99443.73;1703556;82;21249;-73
2022/09/01 09:25:03;;;;;;;6.15;1.37;;;;;;;23.84;34.55;99438.95;1716071;82;21391;-77
2022/09/01 09:27:40;;;;;;;3.27;0.60;;;;;;;23.57;35.68;99440.09;1692969;80;21573;-72
2022/09/01 09:30:26;;;;;;;2.37;0.62;;;;;;;23.36;34.54;99439.52;1687316;83;20940;-77
2022/09/01 09:33:02;;;;;;;3.98;0.90;;;;;;;23.08;36.64;99447.20;1693516;82;20916;-75
2022/09/01 09:35:42;;;;;;;0.70;0.70;;;;;;;22.81;38.51;99449.02;1719094;82;20955;-71
2022/09/01 09:38:18;;;;;;;1.50;0.80;;;;;;;22.60;37.87;99445.59;1716027;82;20888;-73
2022/09/01 09:41:08;;;;;;;5.58;0.90;;;;;;;22.42;38.15;99439.20;1703553;82;20916;-72
2022/09/01 09:43:43;;;;;;;2.08;0.80;;;;;;;22.34;37.50;99443.98;1712566;82;21019;-71
2022/09/01 09:46:26;;;;;;;2.08;0.62;;;;;;;22.25;38.05;99440.77;1743511;80;21027;-73
2022/09/01 09:49:26;;;;;;;1.67;0.80;;;;;;;22.19;38.31;99446.55;1751803;79;20936;-70
2022/09/01 09:52:16;;;;;;;2.37;0.80;;;;;;;22.40;39.25;99445.20;1710089;82;21012;-70
2022/09/01 09:55:05;;;;;;;5.03;0.93;;;;;;;23.04;37.83;99445.20;1645332;85;21552;-69
2022/09/01 09:57:38;;;;;;;3.70;0.70;;;;;;;23.61;36.69;99448.48;1649503;84;20943;-71
2022/09/01 10:00:21;;;;;;;3.50;1.05;;;;;;;24.04;34.21;99443.46;1647397;84;20983;-70
2022/09/01 10:03:08;;;;;;;5.55;1.00;;;;;;;24.16;34.66;99450.61;1644275;84;21013;-70
2022/09/01 10:05:41;;;;;;;1.82;0.70;;;;;;;24.19;33.96;99453.39;1668175;83;20963;-77
2022/09/01 10:08:15;;;;;;;1.35;0.55;;;;;;;24.18;34.75;99462.22;1690462;83;21091;-77
2022/09/01 10:10:53;;;;;;;1.50;0.60;;;;;;;24.35;34.25;99456.50;1678738;83;20942;-78
2022/09/01 10:13:28;;;;;;;3.90;0.80;;;;;;;24.49;33.73;99457.02;1716275;82;21042;-73
2022/09/01 10:16:05;;;;;;;1.72;0.98;;;;;;;24.33;33.12;99460.32;1695600;82;21597;-72
2022/09/01 10:18:45;;;;;;;2.87;0.85;;;;;;;23.99;34.35;99455.91;1705064;82;21566;-72
2022/09/01 10:21:21;;;;;;;8.53;0.98;;;;;;;23.81;33.77;99448.78;1706899;81;21018;-74
2022/09/01 10:23:50;;;;;;;2.02;0.82;;;;;;;23.47;35.34;99464.70;1684241;83;21067;-70
2022/09/01 10:26:32;;;;;;;1.00;0.80;;;;;;;23.07;35.09;99460.41;1702521;84;21004;-70
2022/09/01 10:29:06;;;;;;;;;;;;;;;22.62;35.44;99467.57;1668464;84;21093;-77
2022/09/01 10:31:33;;;;;;;2.05;0.75;;;;;;;22.50;37.61;99460.39;1632624;86;20130;-73
2022/09/01 10:34:03;;;;;;;4.75;0.80;;;;;;;22.86;36.95;99452.82;1658786;85;21010;-77
2022/09/01 10:36:34;;;;;;;6.12;0.98;;;;;;;23.42;36.06;99453.11;1697517;82;20995;-70
2022/09/01 10:39:02;;;;;;;1.55;0.68;;;;;;;23.80;34.32;99439.57;1695301;82;20884;-75
2022/09/01 10:42:08;;;;;;;3.90;1.60;;;;;;;23.83;33.96;99436.55;1694590;83;22198;-73
2022/09/01 10:45:00;;;;;;;6.20;1.70;;;;;;;23.79;34.23;99438.58;1694137;83;20959;-75
2022/09/01 10:47:32;;;;;;;1.98;1.10;;;;;;;23.82;35.42;99427.95;1720059;82;20972;-75
2022/09/01 10:50:04;;;;;;;7.03;2.00;;;;;;;23.75;35.07;99430.78;1711183;83;21004;-72
2022/09/01 10:52:48;;;;;;;1.50;0.90;;;;;;;23.66;35.93;99432.05;1711343;83;20991;-72
2022/09/01 10:55:24;;;;;;;8.28;4.50;;;;;;;23.66;34.64;99436.25;1705509;83;21169;-78
2022/09/01 10:58:18;;;;;;;9.15;4.40;;;;;;;23.32;34.69;99428.93;1709744;82;20928;-81
2022/09/01 11:00:49;;;;;;;4.65;2.33;;;;;;;22.96;35.16;99429.63;1711353;83;21521;-77
2022/09/01 11:03:21;;;;;;;8.43;1.55;;;;;;;22.70;36.14;99432.80;1707120;83;21535;-72
2022/09/01 11:06:11;;;;;;;3.47;1.30;;;;;;;22.83;37.05;99431.83;1704634;83;21596;-73
2022/09/01 11:08:50;;;;;;;2.58;1.22;;;;;;;22.89;35.50;99432.42;1707612;82;21879;-76
2022/09/01 11:11:44;;;;;;;2.93;1.30;;;;;;;22.84;33.71;99432.03;1705344;83;21049;-71
2022/09/01 11:14:21;;;;;;;1.87;0.93;;;;;;;22.62;34.34;99432.00;1658130;82;21446;-71
2022/09/01 11:17:17;;;;;;;13.50;1.20;;;;;;;22.41;34.42;99430.61;1661627;83;20886;-76
2022/09/01 11:20:05;;;;;;;3.50;0.82;;;;;;;22.44;34.87;99430.42;1708358;83;21118;-72
2022/09/01 11:22:34;;;;;;;3.27;1.00;;;;;;;22.60;35.65;99423.80;1711524;82;21150;-75
2022/09/01 11:25:17;;;;;;;;;;;;;;;22.65;34.80;99420.61;1688871;83;20991;-72
2022/09/01 11:27:53;;;;;;;8.35;1.00;;;;;;;22.65;35.32;99419.21;1686400;82;20295;-74
2022/09/01 11:30:56;;;;;;;3.25;0.62;;;;;;;22.82;35.47;99414.84;1699734;82;21553;-74
2022/09/01 11:33:52;;;;;;;1.52;0.60;;;;;;;23.01;34.79;99427.02;1709953;83;21597;-72
2022/09/01 11:36:35;;;;;;;1.42;0.68;;;;;;;22.83;34.06;99422.03;1709797;82;21680;-74
2022/09/01 11:39:25;;;;;;;1.10;0.50;;;;;;;22.59;34.94;99427.20;1708792;83;21557;-74
2022/09/01 11:42:13;;;;;;;1.87;0.60;;;;;;;22.24;34.60;99426.59;1710309;83;21023;-76
2022/09/01 11:45:02;;;;;;;2.45;0.60;;;;;;;21.88;35.49;99433.28;1683427;83;20982;-77
2022/09/01 11:47:38;;;;;;;1.55;0.78;;;;;;;21.55;36.10;99428.16;1711273;83;21020;-80
2022/09/01 11:50:22;;;;;;;1.40;0.53;;;;;;;21.44;36.67;99430.10;1706342;83;21265;-76
2022/09/01 11:53:12;;;;;;;8.40;0.72;;;;;;;21.46;36.84;99436.09;1728541;82;20953;-80
2022/09/01 11:55:47;;;;;;;3.70;1.05;;;;;;;21.95;37.76;99422.90;1720652;82;20994;-78
2022/09/01 11:58:31;;;;;;;2.30;0.80;;;;;;;22.77;36.00;99411.81;1736065;82;21076;-76
2022/09/01 12:01:24;;;;;;;2.90;0.40;;;;;;;23.46;35.75;99418.28;1727177;82;21050;-76
2022/09/01 12:03:54;;;;;;;0.72;0.42;;;;;;;24.08;33.90;99410.59;1713431;82;21222;-79
2022/09/01 12:06:25;;;;;;;3.72;0.82;;;;;;;24.07;31.54;99403.39;1726635;82;21406;-74
2022/09/01 12:09:00;;;;;;;4.28;0.80;;;;;;;23.76;31.87;99407.16;1737931;82;20964;-71